Terminal Aerodrome Forecast
Issued by NWS

Home | Current Version | Previous Version | Text Only | Print | Product List | Glossary On
Versions: 1 2 3 4 5 6 7 8 9 10 11 12 13 14
040
FTUS41 KBTV 232326
TAFRUT
TAF
KRUT 232326Z 2400/2424 VRB04KT P6SM SCT040 BKN110
     FM240300 VRB04KT P6SM SCT025
     FM240600 13004KT 3SM BR SCT020
     FM241200 33005KT P6SM SCT040
      AMD LTD TO CLD VIS AND WIND=

USA.gov is the U.S. government's official web portal to all federal, state and local government web resources and services.